Time;durP1;ratioP1;P1;durP2;ratioP2;P2;SDS_P1;SDS_P2;PMS_P1;PMS_P2;Temp;Humidity;BMP_temperature;BMP_pressure;BME280_temperature;BME280_humidity;BME280_pressure;Samples;Min_cycle;Max_cycle;Signal;HPM_P1;HPM_P2
2021/07/01 00:01:53;;;;;;;4.90;4.50;;;21.20;84.80;;;;;;4874013;29;20229;-84
2021/07/01 00:04:26;;;;;;;4.97;4.57;;;21.10;84.90;;;;;;4873770;29;20185;-84
2021/07/01 00:06:56;;;;;;;5.40;5.00;;;21.00;85.00;;;;;;4878361;29;20224;-88
2021/07/01 00:09:25;;;;;;;5.63;5.10;;;21.00;85.00;;;;;;4870385;29;20217;-86
2021/07/01 00:11:59;;;;;;;6.13;5.07;;;20.90;85.10;;;;;;4873572;29;20259;-86
2021/07/01 00:14:28;;;;;;;5.17;4.80;;;20.90;85.10;;;;;;4881752;29;20204;-87
2021/07/01 00:16:57;;;;;;;5.47;5.07;;;20.90;85.30;;;;;;4878563;29;20246;-87
2021/07/01 00:19:26;;;;;;;6.33;5.77;;;20.80;85.20;;;;;;4870028;29;20224;-86
2021/07/01 00:21:55;;;;;;;7.67;5.50;;;20.80;85.40;;;;;;4876827;29;20348;-85
2021/07/01 00:24:24;;;;;;;7.77;5.10;;;20.80;85.40;;;;;;4879330;29;20899;-85
2021/07/01 00:26:57;;;;;;;5.70;5.30;;;20.70;85.60;;;;;;4879775;29;21028;-84
2021/07/01 00:29:26;;;;;;;5.80;5.30;;;20.60;85.50;;;;;;4866034;29;20267;-86
2021/07/01 00:31:55;;;;;;;6.33;5.50;;;20.40;85.60;;;;;;4862515;29;20536;-84
2021/07/01 00:34:24;;;;;;;5.93;5.43;;;20.30;86.10;;;;;;4871013;29;20223;-85
2021/07/01 00:36:54;;;;;;;6.53;5.97;;;20.20;86.20;;;;;;4864416;29;20208;-85
2021/07/01 00:39:22;;;;;;;6.37;5.80;;;20.10;86.40;;;;;;4872581;29;20299;-85
2021/07/01 00:41:51;;;;;;;6.50;5.80;;;19.90;86.70;;;;;;4876154;29;20220;-85
2021/07/01 00:44:23;;;;;;;5.80;5.30;;;19.80;87.10;;;;;;4881014;29;20503;-84
2021/07/01 00:46:52;;;;;;;6.30;5.80;;;19.80;87.60;;;;;;4869183;29;20487;-84
2021/07/01 00:49:24;;;;;;;6.47;5.93;;;19.70;87.60;;;;;;4868519;29;20547;-87
2021/07/01 00:51:54;;;;;;;7.03;5.80;;;19.60;88.00;;;;;;4866455;29;20228;-83
2021/07/01 00:54:22;;;;;;;6.87;6.17;;;19.60;88.10;;;;;;4872353;29;20215;-84
2021/07/01 00:56:52;;;;;;;6.20;5.63;;;19.50;88.10;;;;;;4884123;29;20208;-87
2021/07/01 00:59:24;;;;;;;6.57;6.07;;;19.50;88.20;;;;;;4862042;29;20728;-86
2021/07/01 01:01:56;;;;;;;6.73;6.13;;;19.50;88.20;;;;;;4866037;29;20212;-84
2021/07/01 01:04:25;;;;;;;6.67;6.03;;;19.50;88.40;;;;;;4869081;29;20240;-86
2021/07/01 01:06:55;;;;;;;5.80;5.30;;;19.50;88.40;;;;;;4878498;29;20219;-85
2021/07/01 01:09:24;;;;;;;6.60;6.00;;;19.40;88.40;;;;;;4882893;29;20224;-86
2021/07/01 01:11:53;;;;;;;6.60;5.90;;;19.40;88.90;;;;;;4882030;29;20212;-84
2021/07/01 01:14:25;;;;;;;6.23;5.73;;;19.30;88.90;;;;;;4897435;29;20415;-86
2021/07/01 01:16:54;;;;;;;6.53;5.90;;;19.30;89.00;;;;;;4864128;29;20214;-85
2021/07/01 01:19:26;;;;;;;6.50;6.00;;;19.30;89.10;;;;;;4868054;29;20687;-87
2021/07/01 01:21:56;;;;;;;8.77;6.17;;;19.20;89.30;;;;;;4883032;29;20204;-85
2021/07/01 01:24:25;;;;;;;6.60;5.97;;;19.20;89.40;;;;;;4864984;29;20287;-86
2021/07/01 01:26:54;;;;;;;6.77;6.10;;;19.10;89.30;;;;;;4882757;29;20200;-86
2021/07/01 01:29:24;;;;;;;7.20;6.60;;;19.00;89.50;;;;;;4858036;29;20235;-85
2021/07/01 01:31:53;;;;;;;6.87;6.30;;;19.00;90.10;;;;;;4861674;29;20216;-84
2021/07/01 01:34:22;;;;;;;7.10;6.50;;;18.90;90.10;;;;;;4869370;29;20215;-84
2021/07/01 01:36:51;;;;;;;6.60;6.10;;;18.80;90.20;;;;;;4858967;29;20330;-86
2021/07/01 01:39:22;;;;;;;6.80;6.20;;;18.80;90.40;;;;;;4865399;29;20259;-86
2021/07/01 01:41:51;;;;;;;7.20;6.60;;;18.80;90.40;;;;;;4850377;29;20220;-85
2021/07/01 01:44:21;;;;;;;6.83;6.33;;;18.80;90.50;;;;;;4853859;29;21981;-85
2021/07/01 01:46:50;;;;;;;7.13;6.53;;;18.70;90.50;;;;;;4859317;29;20220;-86
2021/07/01 01:49:21;;;;;;;6.73;6.10;;;18.70;90.50;;;;;;4863915;29;20205;-85
2021/07/01 01:51:50;;;;;;;7.40;6.70;;;18.60;90.60;;;;;;4869243;29;20279;-85
2021/07/01 01:54:19;;;;;;;8.23;7.43;;;18.50;90.80;;;;;;4859660;29;20951;-86
2021/07/01 01:56:49;;;;;;;7.33;6.73;;;18.60;90.80;;;;;;4865003;29;20264;-86
2021/07/01 01:59:27;;;;;;;8.40;6.77;;;18.60;90.80;;;;;;4855362;29;20228;-87
2021/07/01 02:01:56;;;;;;;8.13;7.33;;;18.50;90.90;;;;;;4858995;29;20216;-85
2021/07/01 02:04:25;;;;;;;7.13;6.60;;;18.50;91.10;;;;;;4854086;29;20216;-85
2021/07/01 02:06:55;;;;;;;8.30;7.60;;;18.40;91.30;;;;;;4858431;29;20221;-85
2021/07/01 02:09:25;;;;;;;7.50;6.87;;;18.50;91.30;;;;;;4871706;29;20574;-84
2021/07/01 02:11:56;;;;;;;7.93;7.03;;;18.50;91.30;;;;;;4880517;29;20396;-85
2021/07/01 02:14:25;;;;;;;7.57;6.80;;;18.50;91.30;;;;;;4885372;29;20222;-85
2021/07/01 02:16:54;;;;;;;8.17;7.47;;;18.50;91.30;;;;;;4884231;29;20209;-85
2021/07/01 02:19:24;;;;;;;7.47;6.77;;;18.50;91.30;;;;;;4881135;29;20252;-86
2021/07/01 02:21:52;;;;;;;7.73;7.03;;;18.50;91.30;;;;;;4861620;29;20217;-86
2021/07/01 02:24:21;;;;;;;7.73;7.00;;;18.40;91.30;;;;;;4858781;29;20217;-86
2021/07/01 02:26:50;;;;;;;8.33;7.53;;;18.40;91.40;;;;;;4852252;29;20209;-85
2021/07/01 02:29:20;;;;;;;8.20;7.50;;;18.30;91.70;;;;;;4855020;29;20211;-86
2021/07/01 02:31:50;;;;;;;8.20;7.37;;;18.30;91.70;;;;;;4856738;29;20223;-85
2021/07/01 02:34:19;;;;;;;9.47;6.87;;;18.30;91.90;;;;;;4858705;29;20205;-86
2021/07/01 02:36:47;;;;;;;7.63;7.03;;;18.40;91.90;;;;;;4857130;29;20272;-85
2021/07/01 02:39:16;;;;;;;7.90;7.20;;;18.30;92.00;;;;;;4873084;29;20212;-87
2021/07/01 02:41:45;;;;;;;7.53;6.93;;;18.30;92.00;;;;;;4873132;29;20201;-85
2021/07/01 02:44:13;;;;;;;7.57;6.87;;;18.30;92.10;;;;;;4885349;29;20232;-86
2021/07/01 02:46:45;;;;;;;7.97;7.23;;;18.20;92.20;;;;;;4870958;29;20212;-87
2021/07/01 02:49:14;;;;;;;7.80;7.00;;;18.10;92.30;;;;;;4871779;29;20261;-86
2021/07/01 02:51:43;;;;;;;7.50;6.90;;;18.10;92.50;;;;;;4867162;29;20297;-85
2021/07/01 02:54:11;;;;;;;8.10;7.07;;;18.10;92.70;;;;;;4860255;29;20204;-86
2021/07/01 02:56:41;;;;;;;9.57;8.57;;;18.10;92.70;;;;;;4874536;29;20188;-85
2021/07/01 02:59:10;;;;;;;8.40;7.70;;;18.10;93.10;;;;;;4887024;29;20523;-85
2021/07/01 03:01:41;;;;;;;8.00;7.20;;;18.10;93.10;;;;;;4874401;29;20239;-85
2021/07/01 03:04:13;;;;;;;7.63;7.03;;;18.40;92.80;;;;;;4864250;29;20211;-84
2021/07/01 03:06:43;;;;;;;8.20;7.40;;;18.40;92.80;;;;;;4855733;29;20252;-86
2021/07/01 03:09:12;;;;;;;8.03;7.27;;;18.40;92.50;;;;;;4860966;29;20201;-85
2021/07/01 03:11:41;;;;;;;8.50;7.70;;;18.50;92.20;;;;;;4873404;29;20237;-86
2021/07/01 03:14:10;;;;;;;7.40;6.70;;;18.60;91.90;;;;;;4881648;29;20256;-86
2021/07/01 03:16:39;;;;;;;7.07;6.37;;;18.70;91.80;;;;;;4880287;29;20330;-87
2021/07/01 03:19:07;;;;;;;7.03;6.37;;;18.80;91.70;;;;;;4890414;29;20205;-86
2021/07/01 03:21:37;;;;;;;7.00;6.17;;;18.80;91.10;;;;;;4875767;29;20240;-84
2021/07/01 03:24:07;;;;;;;6.33;5.73;;;18.90;90.50;;;;;;4879468;29;20273;-83
2021/07/01 03:26:37;;;;;;;6.87;6.17;;;19.10;90.30;;;;;;4861507;29;20256;-85
2021/07/01 03:29:08;;;;;;;6.00;5.40;;;19.30;90.00;;;;;;4855192;29;20267;-86
2021/07/01 03:31:36;;;;;;;5.97;5.43;;;19.40;89.40;;;;;;4855758;29;20212;-86
2021/07/01 03:34:05;;;;;;;5.63;5.13;;;19.60;88.90;;;;;;4859759;29;20213;-85
2021/07/01 03:36:34;;;;;;;6.33;5.73;;;19.70;88.60;;;;;;4862542;29;20208;-86
2021/07/01 03:39:06;;;;;;;5.37;4.87;;;19.80;88.40;;;;;;4865078;29;20216;-84
2021/07/01 03:41:35;;;;;;;5.50;4.90;;;19.90;88.00;;;;;;4876913;29;20216;-84
2021/07/01 03:44:06;;;;;;;4.90;4.50;;;20.00;87.70;;;;;;4880899;29;20212;-82
2021/07/01 03:46:37;;;;;;;5.10;4.60;;;20.00;87.50;;;;;;4880553;29;20310;-84
2021/07/01 03:49:06;;;;;;;5.10;4.70;;;20.10;87.20;;;;;;4868163;29;20215;-84
2021/07/01 03:51:35;;;;;;;5.37;4.97;;;20.10;87.00;;;;;;4870198;29;20254;-84
2021/07/01 03:54:06;;;;;;;4.90;4.17;;;20.20;87.00;;;;;;4876755;29;20204;-86
2021/07/01 03:56:42;;;;;;;5.37;4.87;;;20.20;86.90;;;;;;4874829;29;20291;-86
2021/07/01 03:59:12;;;;;;;4.93;4.43;;;20.20;86.70;;;;;;4868101;29;20205;-87
2021/07/01 04:01:42;;;;;;;4.30;4.00;;;20.30;86.70;;;;;;4869097;29;20232;-84
2021/07/01 04:04:11;;;;;;;4.90;4.50;;;20.20;86.70;;;;;;4875083;29;20328;-86
2021/07/01 04:06:40;;;;;;;4.53;4.13;;;20.30;86.60;;;;;;4864169;29;20215;-86
2021/07/01 04:09:11;;;;;;;5.00;4.53;;;20.30;86.70;;;;;;4859614;29;20209;-85
2021/07/01 04:11:40;;;;;;;5.00;4.60;;;20.40;86.40;;;;;;4856829;29;20211;-86
2021/07/01 04:14:09;;;;;;;4.97;4.57;;;20.40;86.50;;;;;;4856999;29;20212;-88
2021/07/01 04:16:41;;;;;;;5.13;4.63;;;20.50;86.40;;;;;;4864171;29;20642;-84
2021/07/01 04:19:11;;;;;;;5.37;4.97;;;20.50;86.10;;;;;;4858107;29;20629;-86
2021/07/01 04:21:40;;;;;;;5.50;5.10;;;20.50;86.20;;;;;;4861688;29;20237;-86
2021/07/01 04:24:11;;;;;;;4.93;4.43;;;20.50;86.30;;;;;;4854113;29;20751;-86
2021/07/01 04:26:41;;;;;;;4.97;4.57;;;20.60;86.40;;;;;;4857193;29;20215;-89
2021/07/01 04:29:11;;;;;;;4.83;4.43;;;20.70;86.30;;;;;;4865772;29;20212;-87
2021/07/01 04:31:41;;;;;;;5.30;4.87;;;20.90;86.10;;;;;;4872315;29;20275;-85
2021/07/01 04:34:12;;;;;;;5.07;4.63;;;20.90;86.00;;;;;;4865571;29;20219;-85
2021/07/01 04:36:41;;;;;;;5.87;4.30;;;21.00;85.90;;;;;;4859949;29;20213;-86
2021/07/01 04:39:13;;;;;;;5.00;4.60;;;21.20;86.10;;;;;;4865135;29;20316;-86
2021/07/01 04:41:44;;;;;;;5.07;4.57;;;21.40;85.90;;;;;;4873803;29;20236;-86
2021/07/01 04:44:13;;;;;;;5.07;4.57;;;21.60;85.50;;;;;;4853583;29;20312;-86
2021/07/01 04:46:42;;;;;;;7.73;4.93;;;21.70;85.30;;;;;;4863339;29;20209;-88
2021/07/01 04:49:12;;;;;;;5.53;5.00;;;21.70;85.30;;;;;;4866330;29;20209;-86
2021/07/01 04:51:41;;;;;;;5.20;4.80;;;21.60;85.00;;;;;;4877306;29;20200;-84
2021/07/01 04:54:11;;;;;;;4.77;4.37;;;21.60;85.10;;;;;;4878011;29;20213;-84
2021/07/01 04:56:45;;;;;;;4.93;4.53;;;21.60;84.90;;;;;;4879314;29;20346;-84
2021/07/01 04:59:15;;;;;;;5.03;4.53;;;21.60;85.00;;;;;;4871734;29;20197;-83
2021/07/01 05:01:45;;;;;;;5.33;4.83;;;21.60;84.70;;;;;;4880072;29;20242;-84
2021/07/01 05:04:15;;;;;;;4.63;4.23;;;21.70;84.70;;;;;;4860599;29;20295;-85
2021/07/01 05:06:48;;;;;;;4.80;4.40;;;21.70;84.50;;;;;;4856969;29;20223;-82
2021/07/01 05:09:18;;;;;;;4.47;4.00;;;21.70;84.60;;;;;;4871164;29;20207;-83
2021/07/01 05:11:47;;;;;;;4.50;3.70;;;21.80;84.30;;;;;;4876764;29;20253;-84
2021/07/01 05:14:15;;;;;;;3.57;3.27;;;21.80;84.40;;;;;;4879875;29;20219;-85
2021/07/01 05:16:44;;;;;;;4.00;3.10;;;21.90;83.70;;;;;;4876129;29;20499;-85
2021/07/01 05:19:13;;;;;;;3.65;3.35;;;21.90;83.40;;;;;;4878668;29;20220;-86
2021/07/01 05:21:41;;;;;;;4.07;3.58;;;21.90;83.30;;;;;;4880958;29;20279;-85
2021/07/01 05:24:10;;;;;;;3.88;3.42;;;21.80;83.30;;;;;;4880158;29;20256;-84
2021/07/01 05:26:41;;;;;;;3.67;3.28;;;21.70;83.50;;;;;;4879610;29;20293;-87
2021/07/01 05:29:11;;;;;;;4.03;3.70;;;21.70;83.40;;;;;;4875911;29;20216;-85
2021/07/01 05:32:00;;;;;;;4.40;3.47;;;21.80;83.60;;;;;;4880688;29;20241;-84
2021/07/01 05:34:30;;;;;;;3.25;3.05;;;21.80;83.40;;;;;;4862166;29;20245;-85
2021/07/01 05:37:00;;;;;;;3.40;3.10;;;21.90;83.50;;;;;;4858304;29;20229;-85
2021/07/01 05:39:29;;;;;;;3.80;3.50;;;22.00;83.60;;;;;;4857827;29;20301;-85
2021/07/01 05:42:00;;;;;;;3.85;3.55;;;22.10;83.30;;;;;;4854908;29;20236;-83
2021/07/01 05:44:29;;;;;;;3.92;3.55;;;22.00;83.30;;;;;;4860534;29;20261;-84
2021/07/01 05:46:58;;;;;;;5.25;4.18;;;22.10;83.40;;;;;;4864288;29;20265;-84
2021/07/01 05:49:26;;;;;;;3.50;3.20;;;22.10;83.10;;;;;;4866524;29;20204;-85
2021/07/01 05:51:57;;;;;;;4.93;3.25;;;22.00;83.20;;;;;;4878347;29;20230;-82
2021/07/01 05:54:29;;;;;;;3.60;3.30;;;22.00;83.40;;;;;;4864828;29;20224;-85
2021/07/01 05:57:01;;;;;;;4.47;3.25;;;22.10;83.30;;;;;;4863874;29;20296;-83
2021/07/01 05:59:30;;;;;;;6.30;3.70;;;22.10;83.00;;;;;;4870035;29;20217;-84
2021/07/01 06:01:59;;;;;;;3.97;3.65;;;22.00;83.10;;;;;;4863840;29;20593;-84
2021/07/01 06:04:27;;;;;;;5.40;3.63;;;22.00;83.20;;;;;;4872236;29;20200;-85
2021/07/01 06:06:57;;;;;;;4.07;3.65;;;22.00;83.20;;;;;;4860750;29;21058;-82
2021/07/01 06:09:27;;;;;;;3.85;3.40;;;22.00;83.20;;;;;;4855434;29;20217;-84
2021/07/01 06:12:00;;;;;;;4.45;4.05;;;21.90;83.20;;;;;;4857264;29;20231;-83
2021/07/01 06:14:30;;;;;;;4.32;3.70;;;21.90;83.30;;;;;;4858621;29;20216;-82
2021/07/01 06:17:00;;;;;;;4.57;4.18;;;21.90;83.30;;;;;;4868538;29;20216;-85
2021/07/01 06:19:29;;;;;;;4.47;4.07;;;21.90;83.60;;;;;;4871396;29;20268;-83
2021/07/01 06:21:58;;;;;;;4.97;4.10;;;22.00;83.50;;;;;;4871481;29;20240;-83
2021/07/01 06:24:27;;;;;;;4.78;4.07;;;22.10;83.50;;;;;;4866929;29;20468;-83
2021/07/01 06:26:56;;;;;;;5.63;3.70;;;22.30;83.60;;;;;;4862495;29;20947;-84
2021/07/01 06:29:28;;;;;;;3.90;3.60;;;22.50;83.50;;;;;;4846900;29;20284;-83
2021/07/01 06:31:57;;;;;;;4.18;3.60;;;22.60;83.20;;;;;;4847443;29;20231;-83
2021/07/01 06:34:26;;;;;;;3.88;3.47;;;22.70;83.20;;;;;;4839125;29;20259;-79
2021/07/01 06:37:00;;;;;;;4.20;3.90;;;22.90;83.20;;;;;;4825996;29;20216;-81
2021/07/01 06:39:31;;;;;;;8.55;4.40;;;23.10;82.90;;;;;;4835796;29;20292;-81
2021/07/01 06:42:04;;;;;;;4.18;3.60;;;23.10;83.00;;;;;;4838113;29;20296;-82
2021/07/01 06:44:36;;;;;;;4.65;4.20;;;23.20;83.00;;;;;;4832157;29;20338;-83
2021/07/01 06:47:05;;;;;;;4.25;3.85;;;23.30;83.00;;;;;;4833051;29;20779;-82
2021/07/01 06:49:34;;;;;;;4.50;4.10;;;23.30;83.00;;;;;;4838980;29;20216;-82
2021/07/01 06:52:06;;;;;;;4.57;4.18;;;23.40;82.90;;;;;;4839457;29;20467;-84
2021/07/01 06:54:37;;;;;;;4.55;3.88;;;23.50;82.60;;;;;;4838845;29;20248;-81
2021/07/01 06:57:05;;;;;;;4.28;3.88;;;23.40;82.80;;;;;;4843620;29;20240;-82
2021/07/01 06:59:36;;;;;;;6.25;4.35;;;23.30;82.70;;;;;;4836684;29;20304;-82
2021/07/01 07:02:05;;;;;;;5.38;4.20;;;23.10;82.70;;;;;;4823559;29;20762;-84
2021/07/01 07:04:34;;;;;;;5.25;4.72;;;23.00;82.80;;;;;;4820822;29;20282;-82
2021/07/01 07:07:05;;;;;;;5.03;4.55;;;22.70;83.10;;;;;;4819780;29;20737;-84
2021/07/01 07:09:35;;;;;;;5.55;4.40;;;22.50;83.30;;;;;;4828514;29;20246;-83
2021/07/01 07:12:04;;;;;;;4.85;4.07;;;22.40;83.60;;;;;;4833848;29;20216;-85
2021/07/01 07:14:35;;;;;;;4.18;3.80;;;22.50;83.80;;;;;;4827448;29;20208;-84
2021/07/01 07:17:07;;;;;;;4.28;3.97;;;22.50;83.80;;;;;;4831600;29;20334;-82
2021/07/01 07:19:37;;;;;;;5.97;4.35;;;22.50;83.60;;;;;;4843515;29;20219;-85
2021/07/01 07:22:06;;;;;;;5.10;3.97;;;22.60;83.60;;;;;;4841875;29;20256;-83
2021/07/01 07:24:38;;;;;;;3.90;3.60;;;22.70;83.50;;;;;;4834434;29;20784;-82
2021/07/01 07:27:12;;;;;;;3.60;3.35;;;22.70;83.50;;;;;;4831754;29;21863;-83
2021/07/01 07:29:42;;;;;;;4.00;3.65;;;22.80;83.30;;;;;;4837907;29;20229;-84
2021/07/01 07:32:16;;;;;;;3.70;3.33;;;22.90;83.20;;;;;;4839350;29;21371;-82
2021/07/01 07:34:45;;;;;;;3.63;3.28;;;23.00;83.10;;;;;;4857023;29;20193;-83
2021/07/01 07:37:14;;;;;;;3.90;3.50;;;23.20;83.30;;;;;;4860516;29;20273;-82
2021/07/01 07:39:43;;;;;;;3.50;3.20;;;23.30;82.90;;;;;;4846928;29;20296;-83
2021/07/01 07:42:12;;;;;;;4.03;3.72;;;23.40;82.60;;;;;;4847332;29;20268;-82
2021/07/01 07:44:43;;;;;;;5.40;3.42;;;23.30;82.70;;;;;;4850437;29;20308;-83
2021/07/01 07:47:13;;;;;;;3.70;3.40;;;23.20;82.70;;;;;;4834369;29;20236;-82
2021/07/01 07:49:42;;;;;;;3.97;3.53;;;23.10;82.40;;;;;;4844406;29;20209;-81
2021/07/01 07:52:13;;;;;;;5.18;3.95;;;22.90;82.50;;;;;;4848108;29;20219;-83
2021/07/01 07:54:47;;;;;;;4.20;3.90;;;22.90;82.80;;;;;;4847143;29;20212;-84
2021/07/01 07:57:18;;;;;;;7.60;4.35;;;22.90;82.80;;;;;;4848666;29;20240;-83
2021/07/01 07:59:51;;;;;;;5.13;3.80;;;23.00;82.90;;;;;;4848121;29;20530;-84
2021/07/01 08:02:40;;;;;;;4.03;3.58;;;23.10;83.10;;;;;;4848164;29;20237;-83
2021/07/01 08:05:19;;;;;;;5.45;4.10;;;23.20;83.30;;;;;;4856132;29;20217;-84
2021/07/01 08:07:50;;;;;;;5.00;4.57;;;23.50;83.10;;;;;;4854722;29;20411;-85
2021/07/01 08:10:27;;;;;;;4.55;4.15;;;23.60;82.70;;;;;;4861882;29;20261;-85
2021/07/01 08:13:02;;;;;;;5.30;4.53;;;23.80;82.90;;;;;;4857345;29;20212;-83
2021/07/01 08:15:33;;;;;;;7.05;4.45;;;24.00;82.50;;;;;;4856357;29;20222;-83
2021/07/01 08:18:03;;;;;;;7.47;5.03;;;24.30;82.60;;;;;;4861137;29;20331;-82
2021/07/01 08:20:32;;;;;;;8.18;4.97;;;24.60;82.00;;;;;;4861156;29;20287;-83
2021/07/01 08:23:02;;;;;;;5.47;4.95;;;24.70;82.20;;;;;;4853807;29;20324;-84
2021/07/01 08:25:32;;;;;;;6.85;5.10;;;24.80;82.20;;;;;;4837967;29;20336;-83
2021/07/01 08:28:01;;;;;;;16.27;5.72;;;24.90;81.90;;;;;;4838746;29;20224;-86
2021/07/01 08:30:29;;;;;;;5.78;4.68;;;24.90;82.10;;;;;;4839087;29;20518;-82
2021/07/01 08:33:01;;;;;;;4.70;4.20;;;24.70;81.70;;;;;;4840397;29;20215;-84
2021/07/01 08:35:30;;;;;;;6.45;4.05;;;24.70;81.60;;;;;;4839609;29;20496;-85
2021/07/01 08:38:03;;;;;;;5.38;2.97;;;24.80;81.60;;;;;;4831660;29;20248;-84
2021/07/01 08:40:33;;;;;;;7.43;3.65;;;24.70;81.10;;;;;;4841495;29;20240;-84
2021/07/01 08:43:05;;;;;;;4.60;3.15;;;24.90;81.10;;;;;;4860665;29;20239;-84
2021/07/01 08:45:42;;;;;;;4.20;3.80;;;25.10;81.00;;;;;;4861168;29;20282;-84
2021/07/01 08:48:23;;;;;;;4.43;4.10;;;25.30;80.50;;;;;;4862608;29;20326;-87
2021/07/01 08:50:55;;;;;;;4.60;4.20;;;25.50;80.50;;;;;;4853128;29;20227;-82
2021/07/01 08:53:48;;;;;;;4.88;4.20;;;25.50;80.40;;;;;;4840646;29;20418;-82
2021/07/01 08:56:19;;;;;;;5.85;4.00;;;25.50;80.20;;;;;;4862145;29;20213;-83
2021/07/01 08:58:48;;;;;;;4.00;3.67;;;25.20;80.00;;;;;;4845969;29;20396;-83
2021/07/01 09:01:19;;;;;;;5.18;3.90;;;25.10;79.50;;;;;;4862919;29;20485;-82
2021/07/01 09:03:57;;;;;;;5.03;3.88;;;24.90;80.10;;;;;;4861050;29;20574;-83
2021/07/01 09:06:27;;;;;;;5.47;3.70;;;24.90;80.40;;;;;;4852378;29;20215;-84
2021/07/01 09:09:03;;;;;;;3.30;2.40;;;25.00;79.70;;;;;;4840521;29;20326;-83
2021/07/01 09:11:35;;;;;;;2.78;2.53;;;25.10;78.20;;;;;;4866406;29;20216;-85
2021/07/01 09:14:06;;;;;;;3.88;2.50;;;25.30;78.20;;;;;;4866897;29;20882;-83
2021/07/01 09:16:37;;;;;;;2.83;2.45;;;25.50;77.30;;;;;;4837410;29;20220;-84
2021/07/01 09:19:08;;;;;;;3.70;2.38;;;25.20;76.40;;;;;;4848220;29;20236;-84
2021/07/01 09:21:37;;;;;;;6.05;2.90;;;24.90;76.50;;;;;;4860593;29;20224;-83
2021/07/01 09:24:06;;;;;;;2.92;2.17;;;24.70;77.10;;;;;;4860294;29;20232;-84
2021/07/01 09:26:36;;;;;;;2.47;2.28;;;24.70;76.90;;;;;;4860897;29;20340;-84
2021/07/01 09:29:05;;;;;;;2.85;2.60;;;25.00;76.80;;;;;;4858944;29;20200;-83
2021/07/01 09:31:34;;;;;;;4.78;2.55;;;25.30;76.50;;;;;;4842064;29;20687;-82
2021/07/01 09:34:04;;;;;;;2.50;2.30;;;25.30;76.70;;;;;;4852497;29;20208;-84
2021/07/01 09:36:34;;;;;;;5.07;2.50;;;25.50;75.50;;;;;;4857346;29;20262;-83
2021/07/01 09:39:05;;;;;;;2.70;2.50;;;25.70;75.80;;;;;;4847956;29;20219;-83
2021/07/01 09:41:33;;;;;;;3.15;2.65;;;25.80;76.20;;;;;;4842446;29;20829;-85
2021/07/01 09:44:03;;;;;;;3.00;2.47;;;25.90;75.30;;;;;;4846042;29;20503;-83
2021/07/01 09:46:36;;;;;;;8.02;3.00;;;26.00;74.80;;;;;;4846259;29;20267;-83
2021/07/01 09:49:11;;;;;;;2.90;2.70;;;25.90;75.60;;;;;;4839477;29;20205;-83
2021/07/01 09:51:42;;;;;;;2.70;2.47;;;25.90;74.30;;;;;;4844908;29;20617;-84
2021/07/01 09:54:11;;;;;;;2.97;2.40;;;25.90;75.10;;;;;;4840799;29;20707;-84
2021/07/01 09:56:43;;;;;;;2.40;2.20;;;25.80;74.00;;;;;;4839760;29;20223;-83
2021/07/01 09:59:21;;;;;;;2.50;2.30;;;25.70;73.70;;;;;;4853727;29;20235;-84
2021/07/01 10:01:49;;;;;;;4.68;2.28;;;25.80;73.50;;;;;;4854900;29;20208;-84
2021/07/01 10:04:18;;;;;;;2.05;1.95;;;25.80;73.30;;;;;;4841214;29;20229;-83
2021/07/01 10:07:09;;;;;;;2.22;1.92;;;25.90;72.40;;;;;;4840333;29;20426;-82
2021/07/01 10:09:37;;;;;;;2.03;1.92;;;25.80;71.90;;;;;;4845530;29;20304;-84
2021/07/01 10:12:15;;;;;;;2.08;1.98;;;25.80;71.60;;;;;;4850747;29;20647;-84
2021/07/01 10:14:46;;;;;;;2.28;2.08;;;25.90;72.20;;;;;;4846071;29;21189;-84
2021/07/01 10:17:16;;;;;;;2.28;1.90;;;26.00;71.50;;;;;;4848511;29;20220;-82
2021/07/01 10:19:46;;;;;;;3.10;2.20;;;26.00;69.90;;;;;;4847334;29;20226;-83
2021/07/01 10:22:20;;;;;;;2.40;2.20;;;25.90;70.50;;;;;;4852782;29;20212;-82
2021/07/01 10:24:54;;;;;;;2.65;2.30;;;26.00;71.00;;;;;;4840249;29;20269;-84
2021/07/01 10:27:30;;;;;;;4.32;2.70;;;26.10;71.90;;;;;;4837979;29;20312;-82
2021/07/01 10:30:12;;;;;;;3.58;2.80;;;26.30;72.80;;;;;;4825081;29;20704;-82
2021/07/01 10:32:43;;;;;;;2.70;2.45;;;26.40;72.00;;;;;;4840513;29;20232;-82
2021/07/01 10:35:21;;;;;;;2.30;2.20;;;26.40;72.00;;;;;;4823853;29;20502;-83
2021/07/01 10:38:00;;;;;;;2.95;2.65;;;26.30;70.80;;;;;;4819015;29;20606;-84
2021/07/01 10:40:30;;;;;;;3.08;2.30;;;26.10;71.30;;;;;;4838982;29;20282;-84
2021/07/01 10:42:59;;;;;;;2.00;1.90;;;26.10;71.70;;;;;;4847989;29;20569;-83
2021/07/01 10:45:28;;;;;;;2.35;2.20;;;26.30;70.60;;;;;;4829478;29;20240;-82
2021/07/01 10:48:12;;;;;;;3.35;2.15;;;26.40;70.40;;;;;;4836982;29;20308;-82
2021/07/01 10:50:41;;;;;;;2.10;2.00;;;26.50;69.50;;;;;;4857727;29;20515;-82
2021/07/01 10:53:37;;;;;;;2.58;2.38;;;26.80;69.80;;;;;;4840880;29;20233;-82
2021/07/01 10:56:25;;;;;;;2.42;2.22;;;27.00;70.00;;;;;;4836149;29;20880;-83
2021/07/01 10:58:56;;;;;;;2.53;2.33;;;27.20;70.30;;;;;;4831289;29;20248;-84
2021/07/01 11:01:30;;;;;;;4.57;2.45;;;27.30;70.20;;;;;;4846560;29;20208;-83
2021/07/01 11:04:10;;;;;;;2.60;2.30;;;27.70;70.70;;;;;;4852224;29;20419;-83
2021/07/01 11:06:43;;;;;;;4.50;2.35;;;27.80;69.40;;;;;;4856415;29;20545;-82
2021/07/01 11:09:16;;;;;;;4.03;2.25;;;27.50;69.20;;;;;;4843494;29;20216;-86
2021/07/01 11:11:44;;;;;;;3.05;2.33;;;27.60;69.10;;;;;;4847618;29;20209;-83
2021/07/01 11:14:40;;;;;;;2.30;2.00;;;27.60;68.40;;;;;;4866949;29;20536;-82
2021/07/01 11:17:09;;;;;;;2.20;2.00;;;27.80;68.50;;;;;;4839428;29;20296;-83
2021/07/01 11:19:41;;;;;;;2.15;1.98;;;28.00;67.90;;;;;;4842831;29;20216;-84
2021/07/01 11:22:11;;;;;;;1.98;1.83;;;28.20;67.20;;;;;;4841788;29;20326;-84
2021/07/01 11:24:43;;;;;;;2.17;1.80;;;28.40;66.70;;;;;;4845446;29;20760;-83
2021/07/01 11:27:12;;;;;;;2.92;2.10;;;28.50;65.60;;;;;;4833725;29;20328;-84
2021/07/01 11:29:42;;;;;;;2.30;2.10;;;28.80;65.50;;;;;;4840942;29;20809;-84
2021/07/01 11:32:20;;;;;;;2.88;2.28;;;28.80;65.60;;;;;;4854994;29;20208;-84
2021/07/01 11:34:51;;;;;;;3.63;2.28;;;28.80;66.00;;;;;;4866154;29;20200;-83
2021/07/01 11:37:33;;;;;;;2.95;2.10;;;28.70;65.60;;;;;;4865647;29;20255;-85
2021/07/01 11:40:18;;;;;;;2.75;2.30;;;28.70;65.30;;;;;;4871328;29;20213;-83
2021/07/01 11:42:49;;;;;;;3.10;2.38;;;28.70;64.70;;;;;;4873201;29;20208;-84
2021/07/01 11:45:23;;;;;;;1.90;1.80;;;28.50;64.40;;;;;;4867973;29;20300;-83
2021/07/01 11:47:55;;;;;;;2.88;2.40;;;28.40;63.80;;;;;;4855854;29;20276;-84
2021/07/01 11:50:24;;;;;;;4.63;2.67;;;28.10;64.70;;;;;;4860786;29;20211;-84
2021/07/01 11:52:53;;;;;;;3.35;2.60;;;28.10;65.40;;;;;;4846498;29;20216;-84
2021/07/01 11:55:23;;;;;;;4.07;2.60;;;28.20;65.70;;;;;;4847356;29;20208;-83
2021/07/01 11:57:52;;;;;;;4.18;2.50;;;28.20;65.60;;;;;;4842677;29;20208;-84
2021/07/01 12:00:22;;;;;;;2.80;2.35;;;28.10;65.50;;;;;;4840186;29;20192;-83
2021/07/01 12:02:50;;;;;;;2.55;2.25;;;28.00;65.30;;;;;;4845270;29;20209;-82
2021/07/01 12:05:19;;;;;;;4.40;2.10;;;27.80;64.20;;;;;;4840938;29;20231;-84
2021/07/01 12:07:49;;;;;;;1.98;1.88;;;27.70;64.40;;;;;;4838720;29;20634;-85
2021/07/01 12:10:19;;;;;;;2.10;1.90;;;27.80;64.20;;;;;;4842128;29;20231;-83
2021/07/01 12:12:54;;;;;;;3.03;1.90;;;28.00;64.50;;;;;;4840838;29;20216;-83
2021/07/01 12:15:24;;;;;;;2.20;2.00;;;28.10;63.00;;;;;;4840114;29;20203;-83
2021/07/01 12:17:58;;;;;;;3.78;1.95;;;28.40;63.60;;;;;;4846556;29;20675;-85
2021/07/01 12:20:38;;;;;;;4.32;2.22;;;28.70;64.20;;;;;;4848308;29;20442;-84
2021/07/01 12:23:23;;;;;;;2.22;2.03;;;29.00;64.30;;;;;;4853983;29;20208;-85
2021/07/01 12:25:54;;;;;;;2.35;2.17;;;29.20;64.20;;;;;;4848279;29;20244;-84
2021/07/01 12:28:29;;;;;;;2.15;1.95;;;29.50;65.00;;;;;;4848923;29;21206;-84
2021/07/01 12:31:10;;;;;;;3.28;2.35;;;29.90;64.20;;;;;;4846898;29;20223;-81
2021/07/01 12:33:51;;;;;;;2.83;2.17;;;29.90;63.60;;;;;;4847297;29;20220;-85
2021/07/01 12:36:28;;;;;;;5.32;2.22;;;29.80;63.60;;;;;;4847113;29;20217;-85
2021/07/01 12:39:30;;;;;;;3.55;2.60;;;29.80;63.90;;;;;;4842163;29;20204;-82
2021/07/01 12:42:21;;;;;;;3.55;2.88;;;29.70;64.60;;;;;;4847924;29;20252;-82
2021/07/01 12:45:04;;;;;;;3.55;2.80;;;29.70;65.10;;;;;;4838589;29;20213;-81
2021/07/01 12:47:36;;;;;;;3.20;2.28;;;29.40;64.20;;;;;;4843784;29;20499;-84
2021/07/01 12:50:10;;;;;;;2.53;2.33;;;29.10;64.50;;;;;;4862215;29;20196;-83
2021/07/01 12:52:42;;;;;;;3.08;2.60;;;28.80;64.70;;;;;;4868267;29;20288;-86
2021/07/01 12:55:27;;;;;;;2.80;2.60;;;28.80;65.20;;;;;;4870191;29;20210;-83
2021/07/01 12:57:56;;;;;;;2.60;2.40;;;28.90;65.00;;;;;;4853299;29;20433;-84
2021/07/01 13:00:29;;;;;;;6.85;3.13;;;29.00;64.60;;;;;;4860186;29;20204;-83
2021/07/01 13:03:04;;;;;;;2.97;2.67;;;28.90;64.40;;;;;;4869067;29;20191;-82
2021/07/01 13:05:36;;;;;;;2.92;2.47;;;28.80;64.50;;;;;;4871399;29;20224;-83
2021/07/01 13:08:06;;;;;;;4.57;2.70;;;28.50;65.20;;;;;;4871366;29;20188;-83
2021/07/01 13:10:37;;;;;;;2.78;2.58;;;28.50;65.10;;;;;;4872915;29;20216;-82